Val-d'Or Airport
CYVO : now visible

Airfield :











YOU CAN JOIN US ON...

 
LOGIN :

Register | Disclaimer

   EN    FR    IT 

 









Legend :    VFR   Marginal VFR   IFR   Intensive IFR   Very Intensive IFR
Visi :
Ceiling :
>= 8 km
>= 3000ft
5 to 8 km
1000 to 3000 ft
1500m to 5 km
500 to 1000 ft
800 to 1500m
200 to 500 ft
< 800m
< 200 ft
Symbols :   Thunderstorms  Fog  Heavy snow  Heavy precipitations  Wind > 20 kt







- Airport Elevation : 1107 ft
- IATA code : YVO


CYVO - Val-d'Or

CURRENT METAR :
  • 201600Z 32004KT 230V360 15SM BKN013 BKN045 18/15 A3016 RMK SC5SC2 SLP218 DENSITY ALT 1500FT

EXPIRED METARs :
  • 201500Z 29004KT 15SM BKN013 OVC020 17/14 A3017 RMK SC7SC1 SLP223 DENSITY ALT 1300FT

TAF TAF CYVO
Valid from the 20 at 12:00 until the 21 at 00:00 UTC


201143Z 2012/2024 22005KT P6SM BKN020 OVC040
TEMPO 2012/2016 SCT020 BKN040
BECMG 2014/2016 35008KT
FM201600 35007KT P6SM BKN040
TEMPO 2016/2020 5SM -SHRA BR BKN020 OVC040
FM202000 02007KT P6SM BKN030
TEMPO 2020/2024 BKN020 RMK NXT FCST BY 201800Z
No reported NOTAMs for that airfield.



MET'MAP, your aeronautical weather chart ! - Copyright ORBIFLY December 2007 - Disclaimer

ORBIFLY MET'MAP TEAM :

Programming & Development : Alexandra Zaïnal
Concept & Development : Baudouin d'Aumeries
Co-Development & Prog : Marc-Olivier Méhu
Technical & hardware support : Manuel Goepfert

Contact : metmap@orbifly.com




SOURCES & CREDITS :

   NOAA       Earth
Advisory